Time;durP1;ratioP1;P1;durP2;ratioP2;P2;SDS_P1;SDS_P2;PMS_P1;PMS_P2;Temp;Humidity;BMP_temperature;BMP_pressure;BME280_temperature;BME280_humidity;BME280_pressure;Samples;Min_cycle;Max_cycle;Signal;HPM_P1;HPM_P2
2023/08/26 00:00:23;;;;;;;5.88;4.10;;;23.60;95.80;;;;;;5069627;28;20032;-66
2023/08/26 00:02:49;;;;;;;6.30;4.10;;;23.70;95.80;;;;;;5070268;28;20054;-72
2023/08/26 00:05:15;;;;;;;5.35;3.58;;;23.40;95.80;;;;;;5075547;28;20051;-68
2023/08/26 00:07:40;;;;;;;6.25;4.35;;;23.40;95.80;;;;;;5073677;28;20040;-80
2023/08/26 00:10:07;;;;;;;6.50;3.85;;;23.60;95.90;;;;;;5073001;28;20401;-75
2023/08/26 00:12:32;;;;;;;7.97;4.45;;;23.70;95.90;;;;;;5072884;28;20049;-73
2023/08/26 00:14:58;;;;;;;9.57;4.20;;;23.40;95.80;;;;;;5066011;28;20052;-73
2023/08/26 00:17:24;;;;;;;9.13;4.40;;;23.40;95.80;;;;;;5054804;28;20060;-69
2023/08/26 00:19:50;;;;;;;6.78;4.30;;;23.70;95.90;;;;;;5064193;28;20056;-66
2023/08/26 00:22:17;;;;;;;6.72;4.47;;;23.60;95.80;;;;;;5072779;28;20127;-75
2023/08/26 00:24:44;;;;;;;7.97;4.57;;;23.40;95.90;;;;;;5071128;28;20046;-69
2023/08/26 00:27:09;;;;;;;6.88;4.25;;;23.50;95.90;;;;;;5071225;28;20045;-66
2023/08/26 00:29:35;;;;;;;6.20;3.72;;;23.40;95.80;;;;;;5070866;28;20041;-67
2023/08/26 00:32:01;;;;;;;6.97;4.55;;;23.50;95.90;;;;;;5072043;28;20074;-66
2023/08/26 00:34:27;;;;;;;7.65;4.80;;;23.40;95.90;;;;;;5052658;28;20171;-64
2023/08/26 00:36:53;;;;;;;6.93;4.55;;;23.50;95.80;;;;;;5071602;28;20433;-78
2023/08/26 00:39:18;;;;;;;6.45;4.25;;;23.60;95.80;;;;;;5073618;28;20045;-70
2023/08/26 00:41:44;;;;;;;6.70;5.07;;;23.70;95.90;;;;;;5072532;28;20044;-79
2023/08/26 00:44:10;;;;;;;8.52;4.95;;;23.50;97.40;;;;;;5072371;28;20210;-75
2023/08/26 00:46:36;;;;;;;7.72;5.00;;;23.60;95.90;;;;;;5070387;28;20453;-75
2023/08/26 00:49:01;;;;;;;7.78;5.57;;;23.40;95.90;;;;;;5054942;28;20063;-77
2023/08/26 00:51:28;;;;;;;6.90;4.55;;;23.30;95.70;;;;;;5036597;28;20056;-82
2023/08/26 00:53:54;;;;;;;7.35;5.38;;;23.60;97.50;;;;;;5054489;28;20051;-76
2023/08/26 00:56:20;;;;;;;7.30;4.78;;;23.80;96.00;;;;;;5055501;28;20044;-76
2023/08/26 00:58:46;;;;;;;6.85;4.53;;;23.60;96.00;;;;;;5051892;28;20063;-63
2023/08/26 01:01:12;;;;;;;6.75;4.43;;;23.50;95.90;;;;;;5067117;28;20086;-68
2023/08/26 01:03:38;;;;;;;6.88;4.53;;;23.40;95.90;;;;;;5052694;28;20127;-72
2023/08/26 01:06:03;;;;;;;8.13;4.50;;;23.20;95.80;;;;;;5073473;28;20083;-66
2023/08/26 01:08:29;;;;;;;7.35;4.80;;;23.40;97.40;;;;;;5052259;28;20455;-65
2023/08/26 01:10:55;;;;;;;5.75;4.28;;;23.20;95.80;;;;;;5037882;28;20056;-64
2023/08/26 01:13:27;;;;;;;9.30;4.75;;;23.20;95.80;;;;;;5049094;28;20513;-72
2023/08/26 01:15:53;;;;;;;6.57;4.05;;;23.60;95.40;;;;;;5068238;28;20056;-83
2023/08/26 01:18:19;;;;;;;6.50;4.72;;;23.10;95.80;;;;;;5038594;28;20067;-79
2023/08/26 01:20:45;;;;;;;6.30;4.28;;;23.50;96.00;;;;;;5042060;28;20040;-78
2023/08/26 01:23:40;;;;;;;6.80;4.55;;;23.40;97.40;;;;;;5053676;28;20041;-81
2023/08/26 01:26:05;;;;;;;6.68;4.18;;;23.50;95.60;;;;;;5050340;28;20078;-81
2023/08/26 01:28:31;;;;;;;6.47;4.97;;;23.30;95.90;;;;;;5055069;28;20044;-77
2023/08/26 01:31:02;;;;;;;6.15;4.38;;;23.20;95.90;;;;;;5070367;28;20036;-80
2023/08/26 01:33:31;;;;;;;5.72;4.43;;;23.40;95.40;;;;;;5057731;28;20049;-77
2023/08/26 01:35:59;;;;;;;7.53;4.20;;;23.70;96.10;;;;;;5070666;28;20040;-78
2023/08/26 01:38:25;;;;;;;6.15;4.28;;;23.60;96.10;;;;;;5054087;28;20061;-78
2023/08/26 01:40:54;;;;;;;6.22;4.10;;;22.90;95.80;;;;;;5065646;28;20024;-73
2023/08/26 01:43:20;;;;;;;6.07;3.92;;;24.80;96.30;;;;;;5031796;28;20052;-81
2023/08/26 01:45:46;;;;;;;7.78;3.95;;;23.40;96.10;;;;;;5035468;28;20052;-79
2023/08/26 01:48:11;;;;;;;6.03;4.10;;;23.40;95.90;;;;;;5054627;28;20048;-77
2023/08/26 01:50:37;;;;;;;6.65;4.22;;;23.10;95.80;;;;;;5069704;28;20084;-71
2023/08/26 01:53:03;;;;;;;5.32;4.10;;;23.60;95.90;;;;;;5086910;28;20052;-80
2023/08/26 01:55:29;;;;;;;8.00;4.13;;;23.50;95.70;;;;;;5053120;28;20555;-72
2023/08/26 01:57:55;;;;;;;6.63;3.90;;;23.30;95.80;;;;;;5071288;28;20079;-66
2023/08/26 02:00:21;;;;;;;5.68;3.70;;;23.30;95.90;;;;;;5036749;28;20055;-72
2023/08/26 02:02:46;;;;;;;5.93;3.95;;;23.50;95.90;;;;;;5036544;28;20087;-66
2023/08/26 02:05:12;;;;;;;7.57;4.05;;;23.40;95.90;;;;;;5052832;28;20053;-73
2023/08/26 02:07:38;;;;;;;5.85;3.97;;;23.10;95.80;;;;;;5037396;28;20123;-71
2023/08/26 02:10:04;;;;;;;6.20;4.13;;;23.40;95.90;;;;;;5053287;28;20040;-69
2023/08/26 02:12:30;;;;;;;6.53;4.18;;;23.40;97.40;;;;;;5070378;28;20076;-68
2023/08/26 02:14:55;;;;;;;8.07;4.00;;;23.30;95.90;;;;;;5070384;28;20076;-79
2023/08/26 02:17:21;;;;;;;5.07;3.47;;;23.30;95.80;;;;;;5071507;28;20044;-71
2023/08/26 02:19:47;;;;;;;5.22;3.50;;;23.30;95.80;;;;;;5070530;28;20065;-77
2023/08/26 02:22:13;;;;;;;6.82;3.90;;;23.30;95.80;;;;;;5068503;28;20049;-74
2023/08/26 02:24:39;;;;;;;6.05;3.40;;;23.10;95.80;;;;;;5067417;28;20041;-69
2023/08/26 02:27:04;;;;;;;6.07;3.40;;;23.10;95.70;;;;;;5071632;28;20091;-69
2023/08/26 02:29:31;;;;;;;7.10;3.92;;;23.50;97.20;;;;;;5070398;28;20036;-69
2023/08/26 02:31:56;;;;;;;6.53;3.75;;;23.50;95.90;;;;;;5067904;28;20429;-75
2023/08/26 02:34:22;;;;;;;6.50;3.47;;;23.50;95.90;;;;;;5070931;28;20082;-70
2023/08/26 02:36:48;;;;;;;6.07;3.60;;;23.50;95.90;;;;;;5052624;28;20094;-67
2023/08/26 02:39:13;;;;;;;6.55;3.35;;;23.20;95.80;;;;;;5086304;28;20051;-72
2023/08/26 02:41:39;;;;;;;5.53;3.20;;;23.30;95.80;;;;;;5067726;28;20043;-67
2023/08/26 02:44:05;;;;;;;4.93;3.33;;;23.10;95.70;;;;;;5055482;28;20075;-66
2023/08/26 02:46:31;;;;;;;6.03;3.47;;;23.20;95.80;;;;;;5072174;28;20101;-66
2023/08/26 02:48:56;;;;;;;5.00;3.40;;;23.50;95.80;;;;;;5075717;28;20033;-69
2023/08/26 02:51:22;;;;;;;5.97;3.67;;;23.30;95.80;;;;;;5073145;28;20063;-68
2023/08/26 02:53:48;;;;;;;5.03;3.13;;;23.20;95.80;;;;;;5074717;28;20048;-69
2023/08/26 02:56:14;;;;;;;6.22;3.38;;;23.10;95.70;;;;;;5073404;28;20489;-69
2023/08/26 02:58:39;;;;;;;5.03;3.30;;;23.20;95.80;;;;;;5055033;28;20486;-68
2023/08/26 03:01:06;;;;;;;6.57;3.40;;;23.10;95.70;;;;;;5071280;28;20071;-63
2023/08/26 03:03:32;;;;;;;5.22;3.15;;;23.40;97.20;;;;;;5050574;28;20423;-64
2023/08/26 03:05:58;;;;;;;5.05;3.25;;;23.10;95.70;;;;;;5075456;28;20127;-63
2023/08/26 03:08:24;;;;;;;4.82;3.00;;;23.20;95.80;;;;;;5033926;28;20036;-65
2023/08/26 03:11:00;;;;;;;5.50;2.95;;;23.30;95.90;;;;;;5037044;28;20048;-62
2023/08/26 03:13:26;;;;;;;4.15;2.72;;;23.00;97.20;;;;;;5051111;28;20044;-63
2023/08/26 03:15:52;;;;;;;4.72;2.80;;;23.30;95.80;;;;;;5074311;28;20055;-63
2023/08/26 03:18:17;;;;;;;4.57;2.80;;;23.10;95.80;;;;;;5056674;28;20422;-62
2023/08/26 03:20:43;;;;;;;4.72;2.90;;;23.20;95.80;;;;;;5056890;28;20497;-68
2023/08/26 03:23:09;;;;;;;5.53;2.90;;;23.10;95.80;;;;;;5073084;28;20119;-67
2023/08/26 03:25:38;;;;;;;4.40;2.95;;;23.20;95.70;;;;;;5075041;28;20044;-62
2023/08/26 03:28:05;;;;;;;4.68;2.95;;;23.00;95.90;;;;;;5086855;28;20059;-63
2023/08/26 03:30:30;;;;;;;5.30;2.92;;;23.20;95.70;;;;;;5056631;28;20494;-62
2023/08/26 03:32:56;;;;;;;4.55;3.20;;;23.00;95.80;;;;;;5054220;28;20044;-80
2023/08/26 03:35:22;;;;;;;4.53;2.90;;;23.10;95.80;;;;;;5055780;28;20048;-73
2023/08/26 03:37:47;;;;;;;4.97;3.00;;;23.10;97.10;;;;;;5056786;28;20047;-75
2023/08/26 03:40:14;;;;;;;4.65;2.92;;;23.30;95.80;;;;;;5054461;28;20114;-69
2023/08/26 03:42:40;;;;;;;4.45;2.58;;;23.30;95.80;;;;;;5036228;28;20407;-77
2023/08/26 03:45:07;;;;;;;6.68;3.00;;;23.60;97.40;;;;;;5054583;28;20440;-78
2023/08/26 03:47:33;;;;;;;4.63;2.83;;;23.10;95.60;;;;;;5055692;28;20137;-77
2023/08/26 03:49:59;;;;;;;5.35;2.88;;;22.90;95.60;;;;;;5071965;28;20399;-76
2023/08/26 03:52:25;;;;;;;4.10;2.50;;;23.20;95.70;;;;;;5073716;28;20052;-76
2023/08/26 03:54:51;;;;;;;5.47;2.90;;;23.10;95.60;;;;;;5030758;28;20493;-75
2023/08/26 03:57:16;;;;;;;3.58;2.28;;;22.90;95.60;;;;;;5039611;28;20051;-78
2023/08/26 03:59:42;;;;;;;4.40;2.70;;;23.10;95.70;;;;;;5054070;28;20045;-71
2023/08/26 04:02:08;;;;;;;4.45;2.47;;;23.00;95.60;;;;;;5071188;28;20037;-68
2023/08/26 04:04:34;;;;;;;3.88;2.35;;;22.90;95.60;;;;;;5072274;28;20044;-75
2023/08/26 04:06:59;;;;;;;4.38;2.55;;;22.80;95.60;;;;;;5071826;28;20036;-77
2023/08/26 04:09:25;;;;;;;5.30;2.60;;;23.30;95.70;;;;;;5074146;28;20056;-69
2023/08/26 04:11:51;;;;;;;5.18;2.60;;;23.10;95.70;;;;;;5054000;28;20124;-69
2023/08/26 04:14:17;;;;;;;6.70;2.55;;;23.10;95.70;;;;;;5070448;28;20044;-69
2023/08/26 04:16:42;;;;;;;4.40;2.33;;;23.10;95.70;;;;;;5072608;28;20041;-71
2023/08/26 04:19:08;;;;;;;4.80;2.45;;;22.90;95.60;;;;;;5074182;28;20046;-78
2023/08/26 04:21:34;;;;;;;4.72;2.15;;;22.90;95.60;;;;;;5071758;28;20045;-70
2023/08/26 04:23:59;;;;;;;4.63;2.55;;;23.10;95.70;;;;;;5072651;28;20055;-78
2023/08/26 04:26:25;;;;;;;4.53;2.33;;;22.90;95.60;;;;;;5072525;28;20036;-75
2023/08/26 04:28:51;;;;;;;4.75;2.40;;;23.00;95.60;;;;;;5072559;28;20105;-69
2023/08/26 04:31:17;;;;;;;4.05;2.20;;;22.90;97.00;;;;;;5070372;28;20044;-77
2023/08/26 04:33:44;;;;;;;5.68;2.63;;;22.90;95.50;;;;;;5073854;28;20045;-70
2023/08/26 04:36:09;;;;;;;4.28;2.25;;;22.60;95.50;;;;;;5073131;28;20414;-76
2023/08/26 04:38:35;;;;;;;5.47;2.53;;;22.90;97.10;;;;;;5071228;28;20044;-70
2023/08/26 04:41:02;;;;;;;5.18;2.30;;;23.20;95.60;;;;;;5037778;28;20070;-75
2023/08/26 04:43:28;;;;;;;4.40;2.22;;;22.80;95.60;;;;;;5050783;28;20048;-76
2023/08/26 04:45:55;;;;;;;4.20;2.20;;;22.90;96.60;;;;;;5072826;28;20051;-76
2023/08/26 04:48:21;;;;;;;3.83;2.17;;;22.70;95.50;;;;;;5064622;28;20471;-80
2023/08/26 04:50:46;;;;;;;5.35;2.10;;;23.30;95.50;;;;;;5086585;28;20083;-68
2023/08/26 04:53:12;;;;;;;3.95;2.03;;;23.10;95.40;;;;;;5036395;28;20056;-67
2023/08/26 04:55:38;;;;;;;4.85;2.40;;;23.00;95.40;;;;;;5070614;28;20047;-82
2023/08/26 04:58:07;;;;;;;3.83;2.15;;;22.90;95.40;;;;;;5055262;28;20131;-79
2023/08/26 05:00:33;;;;;;;4.43;2.17;;;22.90;95.50;;;;;;5017995;28;20051;-64
2023/08/26 05:02:58;;;;;;;3.67;1.83;;;22.70;95.30;;;;;;5049587;28;20470;-69
2023/08/26 05:05:24;;;;;;;6.68;2.33;;;23.00;95.30;;;;;;5047699;28;20060;-67
2023/08/26 05:07:50;;;;;;;4.65;1.80;;;22.60;95.10;;;;;;5048065;28;20040;-71
2023/08/26 05:10:16;;;;;;;3.47;1.70;;;22.90;95.20;;;;;;5053017;28;20132;-68
2023/08/26 05:12:41;;;;;;;7.05;2.40;;;23.10;95.20;;;;;;5037998;28;20048;-69
2023/08/26 05:15:08;;;;;;;4.85;2.10;;;23.10;96.40;;;;;;5071703;28;20040;-69
2023/08/26 05:17:33;;;;;;;3.72;1.92;;;23.00;94.80;;;;;;5070502;28;20044;-68
2023/08/26 05:19:59;;;;;;;4.78;1.60;;;23.10;94.90;;;;;;5071129;28;20555;-67
2023/08/26 05:22:25;;;;;;;7.00;2.17;;;23.20;94.90;;;;;;5070982;28;20055;-75
2023/08/26 05:24:51;;;;;;;4.40;1.90;;;23.00;94.80;;;;;;5061730;28;20040;-76
2023/08/26 05:27:16;;;;;;;3.65;1.77;;;23.10;94.70;;;;;;5063513;28;20523;-64
2023/08/26 05:29:43;;;;;;;3.60;1.75;;;23.10;94.60;;;;;;5064767;28;20573;-62
2023/08/26 05:32:08;;;;;;;3.67;1.88;;;23.30;94.80;;;;;;5047594;28;20075;-61
2023/08/26 05:34:35;;;;;;;3.70;2.08;;;23.10;94.60;;;;;;5071722;28;20088;-77
2023/08/26 05:37:01;;;;;;;3.95;1.98;;;23.30;94.50;;;;;;5072739;28;20053;-78
2023/08/26 05:39:28;;;;;;;4.60;2.10;;;23.30;94.20;;;;;;5066677;28;20151;-76
2023/08/26 05:41:54;;;;;;;5.00;2.05;;;23.50;94.40;;;;;;5066920;28;20698;-71
2023/08/26 05:44:20;;;;;;;4.88;1.92;;;23.30;94.10;;;;;;5066339;28;20050;-70
2023/08/26 05:46:46;;;;;;;4.55;1.98;;;23.40;93.80;;;;;;5067224;28;20044;-76
2023/08/26 05:49:11;;;;;;;5.53;2.55;;;23.50;93.90;;;;;;5069891;28;20124;-68
2023/08/26 05:51:37;;;;;;;7.00;2.75;;;23.40;93.60;;;;;;5066579;28;20057;-64
2023/08/26 05:54:03;;;;;;;6.22;3.25;;;23.40;93.30;;;;;;5066849;28;20394;-63
2023/08/26 05:56:29;;;;;;;7.22;3.28;;;23.30;93.50;;;;;;5066975;28;20095;-71
2023/08/26 05:58:55;;;;;;;10.23;3.78;;;23.20;93.30;;;;;;5066197;28;20040;-63
2023/08/26 06:01:21;;;;;;;10.88;3.38;;;23.10;93.20;;;;;;5065424;28;20040;-61
2023/08/26 06:03:46;;;;;;;8.85;3.20;;;23.20;92.10;;;;;;5066528;28;20040;-66
2023/08/26 06:06:12;;;;;;;7.13;2.85;;;23.00;92.60;;;;;;5061161;28;20401;-68
2023/08/26 06:08:38;;;;;;;7.43;3.25;;;23.10;91.70;;;;;;5063678;28;20043;-62
2023/08/26 06:11:04;;;;;;;7.90;2.80;;;23.20;91.80;;;;;;5051583;28;20127;-62
2023/08/26 06:13:29;;;;;;;5.70;2.40;;;23.40;93.00;;;;;;5071969;28;20444;-62
2023/08/26 06:15:56;;;;;;;6.03;2.30;;;23.50;91.70;;;;;;5072245;28;20052;-62
2023/08/26 06:18:22;;;;;;;6.13;2.60;;;23.60;91.80;;;;;;5076009;28;20050;-62
2023/08/26 06:20:51;;;;;;;4.45;2.10;;;23.80;91.70;;;;;;5075899;28;20045;-62
2023/08/26 06:23:18;;;;;;;4.50;2.00;;;23.90;91.70;;;;;;5075999;28;20080;-62
2023/08/26 06:25:53;;;;;;;7.25;2.20;;;23.80;91.60;;;;;;5075832;28;20045;-65
2023/08/26 06:28:19;;;;;;;5.07;1.95;;;24.00;91.60;;;;;;5076162;28;20127;-63
2023/08/26 06:30:45;;;;;;;6.57;2.10;;;24.00;91.30;;;;;;5076192;28;20072;-65
2023/08/26 06:33:12;;;;;;;4.85;2.22;;;24.40;91.40;;;;;;5058169;28;20086;-67
2023/08/26 06:35:37;;;;;;;4.53;1.90;;;24.10;91.30;;;;;;5041147;28;20087;-66
2023/08/26 06:38:03;;;;;;;5.78;1.90;;;24.20;91.20;;;;;;5057587;28;20080;-65
2023/08/26 06:40:33;;;;;;;5.40;2.13;;;24.40;91.10;;;;;;5057745;28;20067;-69
2023/08/26 06:42:59;;;;;;;8.05;2.15;;;24.50;90.70;;;;;;5057900;28;20052;-67
2023/08/26 06:45:25;;;;;;;6.03;1.90;;;24.30;91.00;;;;;;5057762;28;20044;-68
2023/08/26 06:47:51;;;;;;;4.72;1.98;;;24.60;91.10;;;;;;5057848;28;20052;-67
2023/08/26 06:50:17;;;;;;;5.35;2.03;;;24.60;91.00;;;;;;5075624;28;20383;-66
2023/08/26 06:52:42;;;;;;;5.28;2.10;;;24.30;90.80;;;;;;5040849;28;20078;-64
2023/08/26 06:55:09;;;;;;;3.45;1.80;;;24.30;90.80;;;;;;5075167;28;20040;-69
2023/08/26 06:57:37;;;;;;;4.85;1.88;;;24.50;91.00;;;;;;5075634;28;20048;-70
2023/08/26 07:00:04;;;;;;;4.68;1.52;;;24.50;91.00;;;;;;5057176;28;20051;-65
2023/08/26 07:02:30;;;;;;;4.22;1.90;;;24.60;90.80;;;;;;5057546;28;20036;-68
2023/08/26 07:04:55;;;;;;;4.10;1.65;;;24.10;92.20;;;;;;5057141;28;20508;-67
2023/08/26 07:07:21;;;;;;;5.90;2.30;;;24.20;90.90;;;;;;5075131;28;20056;-66
2023/08/26 07:09:47;;;;;;;4.22;1.73;;;24.40;91.00;;;;;;5075315;28;20037;-66
2023/08/26 07:12:14;;;;;;;5.70;2.30;;;24.30;91.00;;;;;;5057173;28;20060;-66
2023/08/26 07:14:40;;;;;;;3.85;1.80;;;24.20;91.10;;;;;;5024282;28;20059;-66
2023/08/26 07:17:06;;;;;;;4.80;1.95;;;24.40;91.10;;;;;;5075720;28;20072;-76
2023/08/26 07:19:32;;;;;;;6.07;1.70;;;24.20;91.00;;;;;;5076032;28;20434;-77
2023/08/26 07:21:58;;;;;;;4.22;1.70;;;24.00;91.00;;;;;;5075169;28;20095;-80
2023/08/26 07:24:23;;;;;;;4.70;2.08;;;24.30;91.20;;;;;;5074959;28;20044;-78
2023/08/26 07:26:49;;;;;;;4.35;1.65;;;24.00;91.40;;;;;;5074806;28;20147;-72
2023/08/26 07:29:15;;;;;;;2.97;1.63;;;24.20;91.20;;;;;;5074148;28;20063;-76
2023/08/26 07:31:41;;;;;;;5.88;2.13;;;24.20;91.20;;;;;;5075002;28;20037;-75
2023/08/26 07:34:07;;;;;;;6.85;1.80;;;24.20;91.30;;;;;;5075684;28;20544;-78
2023/08/26 07:36:32;;;;;;;5.75;1.95;;;24.00;91.20;;;;;;5056871;28;20053;-75
2023/08/26 07:38:59;;;;;;;4.35;1.85;;;24.10;91.30;;;;;;5074672;28;20155;-73
2023/08/26 07:41:24;;;;;;;3.65;1.75;;;23.90;91.30;;;;;;5056840;28;20036;-77
2023/08/26 07:43:50;;;;;;;4.45;1.80;;;24.00;91.30;;;;;;5074654;28;20620;-76
2023/08/26 07:46:18;;;;;;;4.45;1.58;;;23.70;91.30;;;;;;5075277;28;20094;-73
2023/08/26 07:48:44;;;;;;;3.00;1.70;;;23.90;91.40;;;;;;5075479;28;20047;-69
2023/08/26 07:51:10;;;;;;;4.50;1.98;;;23.80;91.40;;;;;;5074437;28;20061;-79
2023/08/26 07:53:36;;;;;;;4.18;1.90;;;23.90;91.30;;;;;;5075000;28;20512;-71
2023/08/26 07:56:02;;;;;;;5.15;2.13;;;24.00;91.40;;;;;;5056862;28;20036;-73
2023/08/26 07:58:28;;;;;;;5.15;1.80;;;23.90;91.30;;;;;;5039956;28;20040;-78
2023/08/26 08:00:53;;;;;;;6.40;1.60;;;23.80;91.40;;;;;;5056406;28;20132;-73
2023/08/26 08:03:19;;;;;;;5.30;1.90;;;23.80;91.40;;;;;;5039591;28;20044;-72
2023/08/26 08:05:45;;;;;;;4.10;1.88;;;24.00;91.50;;;;;;5056240;28;20052;-73
2023/08/26 08:08:11;;;;;;;5.38;1.95;;;24.00;91.50;;;;;;5056108;28;20568;-76
2023/08/26 08:10:37;;;;;;;4.75;1.92;;;23.80;91.40;;;;;;5056381;28;20140;-69
2023/08/26 08:13:03;;;;;;;4.45;1.80;;;24.20;91.50;;;;;;5074499;28;20565;-76
2023/08/26 08:15:28;;;;;;;5.55;2.30;;;24.00;91.50;;;;;;5074568;28;20131;-69
2023/08/26 08:17:55;;;;;;;5.53;2.10;;;24.10;91.40;;;;;;5074480;28;20127;-70
2023/08/26 08:20:21;;;;;;;5.32;2.33;;;24.20;91.50;;;;;;5075279;28;20056;-76
2023/08/26 08:22:47;;;;;;;4.05;2.00;;;24.00;91.30;;;;;;5074228;28;20045;-72
2023/08/26 08:25:13;;;;;;;5.80;2.78;;;24.10;91.40;;;;;;5073945;28;20124;-77
2023/08/26 08:27:39;;;;;;;5.40;2.50;;;24.00;91.30;;;;;;5055925;28;20481;-72
2023/08/26 08:30:06;;;;;;;5.78;2.60;;;24.00;91.30;;;;;;5073949;28;20045;-72
2023/08/26 08:32:33;;;;;;;4.95;2.28;;;23.90;91.10;;;;;;5073651;28;20048;-78
2023/08/26 08:35:02;;;;;;;4.70;2.47;;;24.10;91.30;;;;;;5073575;28;20066;-69
2023/08/26 08:37:28;;;;;;;4.35;2.42;;;24.30;90.60;;;;;;5073481;28;20046;-74
2023/08/26 08:39:54;;;;;;;5.55;3.00;;;24.20;91.10;;;;;;5073422;28;20119;-70
2023/08/26 08:42:20;;;;;;;6.32;3.20;;;24.30;91.00;;;;;;5073450;28;20127;-68
2023/08/26 08:44:46;;;;;;;5.78;3.33;;;24.60;91.00;;;;;;5038924;28;20044;-75
2023/08/26 08:47:12;;;;;;;5.97;3.53;;;24.70;91.00;;;;;;5038964;28;20048;-77
2023/08/26 08:49:38;;;;;;;8.13;4.13;;;24.80;91.00;;;;;;5073644;28;20461;-72
2023/08/26 08:52:05;;;;;;;6.30;3.50;;;24.60;90.80;;;;;;5072975;28;20088;-70
2023/08/26 08:54:32;;;;;;;5.82;3.28;;;24.80;90.70;;;;;;5073292;28;20048;-72
2023/08/26 08:56:58;;;;;;;6.18;3.40;;;24.70;90.90;;;;;;5073284;28;20405;-77
2023/08/26 08:59:27;;;;;;;5.95;3.55;;;24.80;90.70;;;;;;5073225;28;20440;-78
2023/08/26 09:01:54;;;;;;;6.45;3.70;;;24.70;90.70;;;;;;5055283;28;20072;-73
2023/08/26 09:04:20;;;;;;;5.88;3.53;;;24.70;90.70;;;;;;5038449;28;20135;-66
2023/08/26 09:06:46;;;;;;;5.95;4.00;;;24.70;90.70;;;;;;5055128;28;20140;-69
2023/08/26 09:09:12;;;;;;;5.63;3.97;;;24.70;90.60;;;;;;5038544;28;20063;-72
2023/08/26 09:11:38;;;;;;;6.00;3.92;;;24.80;90.60;;;;;;5037818;28;20152;-78
2023/08/26 09:14:05;;;;;;;7.32;4.07;;;26.50;91.00;;;;;;5071708;28;20051;-70
2023/08/26 09:16:49;;;;;;;6.20;4.18;;;25.10;90.60;;;;;;5071618;28;20442;-72
2023/08/26 09:19:14;;;;;;;7.22;4.07;;;25.40;90.50;;;;;;5088328;28;20076;-70
2023/08/26 09:21:42;;;;;;;7.15;4.50;;;25.10;90.40;;;;;;5054665;28;20088;-67
2023/08/26 09:24:13;;;;;;;6.22;4.40;;;25.10;90.50;;;;;;5072869;28;20436;-77
2023/08/26 09:26:40;;;;;;;7.25;4.68;;;25.30;89.60;;;;;;5072626;28;20048;-72
2023/08/26 09:29:18;;;;;;;7.70;4.72;;;25.10;90.30;;;;;;5054780;28;20055;-70
2023/08/26 09:31:52;;;;;;;7.25;4.57;;;25.20;90.30;;;;;;5054538;28;20139;-76
2023/08/26 09:34:26;;;;;;;9.27;4.32;;;25.40;90.30;;;;;;5054811;28;20124;-70
2023/08/26 09:36:52;;;;;;;8.85;5.22;;;25.60;90.30;;;;;;5038038;28;20052;-68
2023/08/26 09:39:18;;;;;;;7.93;4.70;;;25.40;90.10;;;;;;5054793;28;20044;-67
2023/08/26 09:41:45;;;;;;;6.90;4.60;;;25.70;90.10;;;;;;5054718;28;20398;-68
2023/08/26 09:44:11;;;;;;;6.95;4.60;;;25.40;90.10;;;;;;5054614;28;20141;-73
2023/08/26 09:46:39;;;;;;;7.00;4.43;;;25.40;90.10;;;;;;5037896;28;20083;-73
2023/08/26 09:49:05;;;;;;;7.82;4.57;;;25.30;89.80;;;;;;5072690;28;20052;-66
2023/08/26 09:51:31;;;;;;;8.02;4.50;;;25.40;90.10;;;;;;5048322;28;20079;-69
2023/08/26 09:53:58;;;;;;;7.03;4.38;;;25.60;89.90;;;;;;5052305;28;20045;-75
2023/08/26 09:56:24;;;;;;;5.95;4.00;;;25.50;90.00;;;;;;5052505;28;20107;-72
2023/08/26 09:58:51;;;;;;;5.68;3.70;;;25.40;90.00;;;;;;5052323;28;20067;-70
2023/08/26 10:01:21;;;;;;;6.25;4.25;;;25.40;89.90;;;;;;5052304;28;20040;-74
2023/08/26 10:03:53;;;;;;;5.90;3.88;;;25.50;88.70;;;;;;5050992;28;20037;-70
2023/08/26 10:06:21;;;;;;;6.88;4.03;;;25.40;90.00;;;;;;5051136;28;20049;-67
2023/08/26 10:08:48;;;;;;;5.93;3.72;;;25.50;90.00;;;;;;5034479;28;20051;-69
2023/08/26 10:11:15;;;;;;;8.30;4.38;;;25.40;90.00;;;;;;5050856;28;20049;-67
2023/08/26 10:13:42;;;;;;;6.13;4.00;;;25.50;89.90;;;;;;5034777;28;20045;-69
2023/08/26 10:16:08;;;;;;;7.55;4.10;;;25.30;89.90;;;;;;5051951;28;20041;-66
2023/08/26 10:18:41;;;;;;;7.65;3.53;;;25.70;89.90;;;;;;5050948;28;20079;-69
2023/08/26 10:21:07;;;;;;;6.85;3.95;;;25.30;88.50;;;;;;5050716;28;20071;-67
2023/08/26 10:23:33;;;;;;;4.90;3.22;;;25.60;89.90;;;;;;5051035;28;20123;-66
2023/08/26 10:25:59;;;;;;;5.55;3.50;;;25.60;89.70;;;;;;5050530;28;20406;-65
2023/08/26 10:28:25;;;;;;;6.38;3.70;;;25.70;89.80;;;;;;5034059;28;20041;-67
2023/08/26 10:30:54;;;;;;;6.85;3.65;;;25.20;89.50;;;;;;5017699;28;20084;-64
2023/08/26 10:33:20;;;;;;;6.10;3.67;;;25.40;89.70;;;;;;5050556;28;20081;-66
2023/08/26 10:36:12;;;;;;;5.70;3.40;;;25.40;89.50;;;;;;5033899;28;20046;-65
2023/08/26 10:38:39;;;;;;;6.53;3.65;;;25.60;90.00;;;;;;5050420;28;20128;-66
2023/08/26 10:41:09;;;;;;;8.15;3.67;;;25.40;89.10;;;;;;5050818;28;20060;-66
2023/08/26 10:43:36;;;;;;;6.00;3.50;;;25.50;89.90;;;;;;5050476;28;20049;-66
2023/08/26 10:46:01;;;;;;;5.55;3.40;;;25.80;89.60;;;;;;5033932;28;20056;-65
2023/08/26 10:48:27;;;;;;;5.85;3.30;;;25.60;89.40;;;;;;5034224;28;20041;-64
2023/08/26 10:51:00;;;;;;;6.13;3.40;;;25.60;89.50;;;;;;5033841;28;20053;-68
2023/08/26 10:53:26;;;;;;;6.78;3.10;;;25.80;89.90;;;;;;5050542;28;20390;-67
2023/08/26 10:55:53;;;;;;;6.45;2.97;;;25.40;89.30;;;;;;5050338;28;20525;-66
2023/08/26 10:58:20;;;;;;;5.63;3.17;;;25.60;89.40;;;;;;5050355;28;20091;-66
2023/08/26 11:00:52;;;;;;;7.35;2.97;;;25.30;89.20;;;;;;5033553;28;20045;-66
2023/08/26 11:03:25;;;;;;;7.65;3.30;;;25.50;87.70;;;;;;5034741;28;20420;-64
2023/08/26 11:06:01;;;;;;;5.55;3.10;;;25.80;88.90;;;;;;5054199;28;20049;-64
2023/08/26 11:08:27;;;;;;;5.57;3.00;;;25.70;89.10;;;;;;5054175;28;20442;-66
2023/08/26 11:10:53;;;;;;;6.43;2.92;;;25.90;88.70;;;;;;5053945;28;20048;-64
2023/08/26 11:13:20;;;;;;;7.28;3.67;;;25.70;88.60;;;;;;5056309;28;20486;-68
2023/08/26 11:15:46;;;;;;;6.40;2.85;;;25.70;88.70;;;;;;5047273;28;20122;-72
2023/08/26 11:18:12;;;;;;;6.07;2.83;;;25.60;88.50;;;;;;5056685;28;20048;-76
2023/08/26 11:20:38;;;;;;;6.65;2.88;;;25.50;88.60;;;;;;5055542;28;20041;-77
2023/08/26 11:23:07;;;;;;;5.65;2.97;;;25.60;88.60;;;;;;5054951;28;20437;-72
2023/08/26 11:25:36;;;;;;;5.35;2.60;;;25.30;88.50;;;;;;5053444;28;20059;-72
2023/08/26 11:28:14;;;;;;;6.28;2.70;;;25.20;88.90;;;;;;5036889;28;20045;-74
2023/08/26 11:30:45;;;;;;;5.90;2.83;;;25.30;89.10;;;;;;5054758;28;20048;-69
2023/08/26 11:33:15;;;;;;;5.17;2.43;;;25.40;89.30;;;;;;5054715;28;20037;-75
2023/08/26 11:35:45;;;;;;;4.50;2.28;;;25.10;89.20;;;;;;5054930;28;20052;-71
2023/08/26 11:38:11;;;;;;;5.60;2.45;;;25.20;89.00;;;;;;5054856;28;20049;-76
2023/08/26 11:40:38;;;;;;;5.97;2.40;;;25.10;89.00;;;;;;5054888;28;20040;-69
2023/08/26 11:43:11;;;;;;;5.72;2.53;;;24.90;89.20;;;;;;5054613;28;20729;-78
2023/08/26 11:45:38;;;;;;;4.30;2.22;;;25.00;87.90;;;;;;5054267;28;20580;-72
2023/08/26 11:48:05;;;;;;;5.57;2.65;;;24.90;89.30;;;;;;5036643;28;20502;-72
2023/08/26 11:50:33;;;;;;;4.38;2.42;;;25.00;88.70;;;;;;5058144;28;20056;-80
2023/08/26 11:53:02;;;;;;;4.32;2.25;;;25.10;89.40;;;;;;5056452;28;20063;-80
2023/08/26 11:55:28;;;;;;;4.97;2.50;;;25.00;89.40;;;;;;5040003;28;20557;-79
2023/08/26 11:57:55;;;;;;;4.55;2.17;;;25.20;89.40;;;;;;5056503;28;20091;-81
2023/08/26 12:00:21;;;;;;;4.50;2.13;;;25.10;89.30;;;;;;5039556;28;20048;-80
2023/08/26 12:02:48;;;;;;;6.05;2.45;;;25.10;89.20;;;;;;5039521;28;20131;-81
2023/08/26 12:05:18;;;;;;;4.80;2.17;;;25.20;89.60;;;;;;5039645;28;20056;-79
2023/08/26 12:07:50;;;;;;;4.22;2.20;;;25.00;88.40;;;;;;5056344;28;20402;-80
2023/08/26 12:10:20;;;;;;;5.90;2.13;;;25.00;87.90;;;;;;5040640;28;20056;-81
2023/08/26 12:12:47;;;;;;;4.10;1.90;;;24.80;88.90;;;;;;5038799;28;20045;-78
2023/08/26 12:15:17;;;;;;;4.85;1.58;;;25.10;89.30;;;;;;5089070;28;20596;-76
2023/08/26 12:17:46;;;;;;;7.68;2.40;;;25.00;89.30;;;;;;5072328;28;20382;-73
2023/08/26 12:20:31;;;;;;;4.85;2.25;;;25.00;89.30;;;;;;5074095;28;20072;-77
2023/08/26 12:23:02;;;;;;;3.90;2.00;;;24.80;89.20;;;;;;5056085;28;20394;-75
2023/08/26 12:25:33;;;;;;;6.80;2.50;;;25.00;89.40;;;;;;5039286;28;20049;-75
2023/08/26 12:28:05;;;;;;;4.90;2.33;;;25.10;89.10;;;;;;5073943;28;20049;-77
2023/08/26 12:30:31;;;;;;;5.20;2.55;;;25.00;89.30;;;;;;5073491;28;20056;-79
2023/08/26 12:32:57;;;;;;;5.72;2.50;;;25.10;89.60;;;;;;5073592;28;20045;-69
2023/08/26 12:35:23;;;;;;;7.07;2.40;;;25.10;89.00;;;;;;5073580;28;20072;-77
2023/08/26 12:37:49;;;;;;;5.38;2.35;;;25.00;88.50;;;;;;5055570;28;20045;-79
2023/08/26 12:40:14;;;;;;;4.70;2.42;;;25.00;88.80;;;;;;5073693;28;20097;-76
2023/08/26 12:42:40;;;;;;;6.43;2.92;;;24.90;88.90;;;;;;5055770;28;20187;-72
2023/08/26 12:45:06;;;;;;;5.60;3.03;;;24.90;88.80;;;;;;5073276;28;20788;-70